ADDS METAR Data INFO
IDs: Format: Raw Decoded Include TAF

Data at: 1933 UTC 18 Feb 2018

KVTN 181928Z AUTO 34017G28KT 10SM BKN013 02/M03 A2956 RMK AO2 PK WND 33029/1905 T00221028
KVTN 181852Z AUTO 33020G24KT 10SM CLR 04/M02 A2955 RMK AO2 PK WND 33028/1818 SLP019 T00441022
KVTN 181752Z AUTO 33018KT 10SM CLR 06/M02 A2955 RMK AO2 SLP020 T00561022 10078 20044 51029
KVTN 181652Z AUTO 33009G14KT 10SM CLR 07/M03 A2953 RMK AO2 SLP012 T00721033
KVTN 181552Z AUTO 25005KT 10SM CLR 07/M05 A2951 RMK AO2 WSHFT 1512 SLP005 T00721050
KVTN 181532Z AUTO 31009G22KT 10SM CLR 06/M06 A2950 RMK AO2 WSHFT 1512 T00611056
KVTN 181452Z AUTO 21015KT 10SM CLR 05/M05 A2945 RMK AO2 SLP989 T00501050 55005
KVTN 181352Z AUTO 21017KT 10SM CLR 05/M06 A2944 RMK AO2 SLP985 T00501056
KVTN 181252Z AUTO 21018G24KT 10SM CLR 05/M06 A2945 RMK AO2 PK WND 20028/1158 SLP989 T00501056
KVTN 181152Z AUTO 21021G27KT 10SM CLR 05/M06 A2947 RMK AO2 PK WND 20030/1059 SLP993 T00501061 10050 20017 56032
KVTN 181052Z AUTO 20019G30KT 10SM FEW120 05/M07 A2950 RMK AO2 PK WND 19034/1005 SLP999 T00501067
KVTN 180952Z AUTO 21023G27KT 10SM CLR 04/M07 A2953 RMK AO2 PK WND 19031/0856 SLP012 T00441072
KVTN 180852Z AUTO 20022G29KT 10SM CLR 04/M07 A2957 RMK AO2 PK WND 21030/0820 SLP027 T00391067 56050
KVTN 180752Z AUTO 20021G33KT 10SM CLR 03/M07 A2962 RMK AO2 PK WND 20033/0745 SLP044 T00331067
KVTN 180652Z AUTO 19016G25KT 10SM CLR 03/M06 A2967 RMK AO2 SLP062 T00281056
KVTN 180552Z AUTO 16013G17KT 10SM CLR 02/M05 A2973 RMK AO2 PRESFR SLP086 T00171050 10028 20006 400561061 58049
KVTN 180452Z AUTO 16012KT 10SM CLR 01/M05 A2980 RMK AO2 SLP111 T00111050
KVTN 180352Z AUTO 15009KT 10SM CLR 01/M05 A2985 RMK AO2 SLP128 T00061050
KVTN 180252Z AUTO 12010KT 10SM CLR 01/M05 A2989 RMK AO2 SLP146 T00061050 58021
KVTN 180152Z AUTO 14008KT 10SM CLR 01/M05 A2991 RMK AO2 SLP157 T00061050
KVTN 180052Z AUTO 13007KT 10SM CLR 01/M05 A2993 RMK AO2 SLP164 T00061050
KVTN 172352Z AUTO 13007KT 10SM CLR 03/M05 A2995 RMK AO2 SLP168 T00281050 10056 20028 58019
KVTN 172252Z AUTO 21004KT 10SM CLR 04/M06 A2998 RMK AO2 SLP174 T00441056
KVTN 172152Z AUTO 26007KT 10SM CLR 05/M06 A3001 RMK AO2 SLP185 T00501056
KVTN 172052Z AUTO 32007KT 10SM FEW033 04/M05 A3001 RMK AO2 SLP184 T00441050 58012
KVTN 171952Z AUTO 32014KT 10SM FEW031 03/M05 A3003 RMK AO2 SLP190 T00331050
KVTN 171852Z AUTO 30013G21KT 10SM FEW030 03/M05 A3004 RMK AO2 SLP194 T00331050
KVTN 171752Z AUTO 31014G21KT 10SM FEW028 02/M05 A3005 RMK AO2 PK WND 29027/1701 SLP198 T00221050 10028 21061 51027
KVTN 171652Z AUTO 32018G25KT 10SM CLR 03/M05 A3002 RMK AO2 PK WND 32028/1633 SLP187 T00281050
KVTN 171552Z AUTO 29013G20KT 10SM CLR 01/M06 A3000 RMK AO2 SLP182 T00111061
KVTN 171452Z AUTO 29009KT 10SM SCT065 M02/M07 A2996 RMK AO2 SLP172 T10171067 53024
KVTN 171352Z AUTO 27005KT 10SM CLR M05/M08 A2992 RMK AO2 SLP158 T10501078
KVTN 171252Z AUTO 26008KT 10SM CLR M04/M07 A2990 RMK AO2 SLP149 T10441072
KVTN 171152Z AUTO 31007KT 10SM CLR M03/M06 A2989 RMK AO2 SLP142 T10281061 10011 21028 53024
KVTN 171052Z AUTO 30009KT 10SM CLR M02/M05 A2985 RMK AO2 SLP126 T10171050
KVTN 170952Z AUTO 24004KT 10SM SCT100 M03/M05 A2982 RMK AO2 SLP116 T10281050
KVTN 170852Z AUTO 30007KT 10SM FEW110 M01/M04 A2981 RMK AO2 SLP111 T10061044 55001
KVTN 170752Z AUTO 31006KT 10SM OVC075 01/M04 A2980 RMK AO2 SLP112 T00061044